Latest Weather Observations for Mareeba

IDQ60801

Issued at 2:02 pm EST Thursday 2 April 2015 (issued every 30 minutes, with the page automatically refreshed every 10 minutes)

About weather observations | Map of weather stations | Latest weather observations for QLD | Other Formats
Station Details ID: 031210 Name: MAREEBA AIRPORT Lat: -17.07 Lon: 145.43 Height: 471.93 m
Data from the previous 72 hours. | See also: Recent months at Mareeba
Date/Time
EST
Temp
°C
App
Temp
°C
Dew
Point
Rel
Hum
%
Delta-T
°C
Wind Press
QNH
hPa
Press
MSL
hPa
Rain
since 9 am
mm
Dir
 
Spd
km/h
Gust
km/h
Spd
kts
Gust
kts
02/02:00pm 30.2 30.2 18.0 48 8.0 SE 15 26 8 14 1012.0 - 0.0
02/01:30pm 29.6 29.5 17.8 49 7.7 SSE 15 22 8 12 1012.3 - 0.0
02/01:00pm 28.5 28.2 17.4 51 7.1 SE 15 26 8 14 1013.1 - 0.0
02/12:30pm 28.8 28.5 18.3 53 6.8 SE 17 24 9 13 1013.6 - 0.0
02/12:00pm 28.7 28.4 18.2 53 6.8 ESE 17 24 9 13 1014.2 1011.5 0.0
02/11:30am 28.9 28.2 17.4 49 7.4 SE 17 26 9 14 1014.6 - 0.0
02/11:00am 28.9 28.8 18.7 54 6.7 ESE 17 26 9 14 1015.0 - 0.0
02/10:30am 28.5 27.8 18.3 54 6.6 SE 19 24 10 13 1015.5 - 0.0
02/10:00am 27.6 26.9 18.3 57 6.0 SE 19 28 10 15 1015.5 - 0.0
02/09:30am 26.7 26.5 18.6 61 5.3 SE 17 24 9 13 1015.8 - 0.0
02/09:00am 25.8 26.1 18.7 65 4.6 SE 15 22 8 12 1015.9 1013.2 0.0
02/08:30am 24.9 24.9 19.0 69 3.8 SE 17 24 9 13 1015.9 - 0.0
02/08:00am 23.9 25.2 19.2 75 3.1 SE 11 17 6 9 1015.6 - 0.0
02/07:30am 22.4 24.2 19.6 84 1.8 SSE 9 11 5 6 1015.2 - 0.0
02/07:00am 20.2 22.1 19.0 93 0.8 E 7 9 4 5 1014.8 - 0.0
02/06:30am 19.1 21.1 17.8 92 0.8 E 4 9 2 5 1014.5 - 0.0
02/06:00am 19.7 21.7 18.7 94 0.6 ESE 6 13 3 7 1013.9 1011.2 0.0
02/05:30am 18.7 21.2 17.2 91 0.9 CALM 0 4 0 2 1013.7 - 0.0
02/05:00am 19.0 21.6 17.5 91 0.9 CALM 0 0 0 0 1013.6 - 0.0
02/04:30am 19.1 21.7 17.4 90 1.1 CALM 0 0 0 0 1013.2 - 0.0
02/04:00am 20.0 22.6 18.5 91 1.0 ESE 2 11 1 6 1013.3 - 0.0
02/03:30am 19.8 21.3 18.1 90 1.1 ESE 7 11 4 6 1013.2 - 0.0
02/03:00am 19.8 22.5 17.8 88 1.3 CALM 0 0 0 0 1013.4 1010.7 0.0
02/02:30am 20.1 21.8 18.0 88 1.3 NNE 6 9 3 5 1013.6 - 0.0
02/02:00am 20.9 21.6 18.8 88 1.3 SE 13 17 7 9 1013.7 - 0.0
02/01:30am 21.0 22.5 18.9 88 1.3 SE 9 11 5 6 1014.0 - 0.0
02/01:00am 21.2 22.3 18.9 87 1.5 SSE 11 15 6 8 1014.4 - 0.0
02/12:30am 21.3 22.4 18.9 86 1.5 SSE 11 15 6 8 1014.9 - 0.0
02/12:00am 21.2 21.9 18.8 86 1.5 SSE 13 17 7 9 1015.4 1012.7 0.0
 
Date/Time
EST
Temp
°C
App
Temp
°C
Dew
Point
Rel
Hum
%
Delta-T
°C
Wind Press
QNH
hPa
Press
MSL
hPa
Rain
since 9 am
mm
Dir
 
Spd
km/h
Gust
km/h
Spd
kts
Gust
kts
01/11:30pm 21.2 22.3 18.8 86 1.5 SSE 11 15 6 8 1015.2 - 0.0
01/11:00pm 21.7 21.7 18.9 84 1.8 SSE 17 22 9 12 1015.5 - 0.0
01/10:30pm 21.7 21.7 18.9 84 1.8 SSE 17 22 9 12 1015.5 - 0.0
01/10:00pm 21.8 22.6 19.0 84 1.8 S 13 17 7 9 1015.2 - 0.0
01/09:30pm 22.0 23.1 18.8 82 2.1 SSE 11 15 6 8 1015.4 - 0.0
01/09:00pm 22.5 23.6 18.9 80 2.3 SSE 11 17 6 9 1015.2 1012.6 0.0
01/08:30pm 22.7 22.8 19.1 80 2.3 SE 17 22 9 12 1014.9 - 0.0
01/08:00pm 23.0 23.5 19.2 79 2.5 SSE 15 20 8 11 1014.7 - 0.0
01/07:30pm 23.6 23.6 18.9 75 3.0 SSE 17 22 9 12 1014.2 - 0.0
01/07:00pm 24.0 23.6 18.9 73 3.3 SE 19 26 10 14 1014.0 - 0.0
01/06:30pm 24.6 24.7 19.2 72 3.5 SE 17 24 9 13 1013.8 - 0.0
01/06:00pm 25.6 25.8 19.3 68 4.1 SSE 17 26 9 14 1013.5 1010.8 0.0
01/05:30pm 26.4 26.0 18.8 63 5.0 SE 19 28 10 15 1013.3 - 0.0
01/05:00pm 27.3 26.7 18.9 60 5.5 SE 20 28 11 15 1012.9 - 0.0
01/04:30pm 27.9 26.3 18.3 56 6.2 SE 24 33 13 18 1012.7 - 0.0
01/04:00pm 28.5 27.2 19.1 56 6.2 SE 24 32 13 17 1012.7 - 0.0
01/03:30pm 28.3 27.0 19.0 57 6.1 SE 24 33 13 18 1012.8 - 0.0
01/03:00pm 28.4 26.5 18.5 55 6.5 SE 26 35 14 19 1012.8 1010.1 0.0
01/02:30pm 27.7 25.1 18.7 58 5.9 SSE 30 41 16 22 1013.1 - 0.0
01/02:00pm 28.7 28.1 18.5 54 6.7 SSE 19 33 10 18 1012.9 - 0.0
01/01:30pm 30.1 30.8 18.8 50 7.4 SE 13 24 7 13 1013.5 - 0.0
01/01:00pm 30.6 30.6 18.0 47 8.2 ESE 15 22 8 12 1013.9 - 0.0
01/12:30pm 29.9 29.1 17.0 45 8.3 ESE 17 28 9 15 1014.4 - 0.0
01/12:00pm 30.1 30.4 17.9 48 7.9 E 13 24 7 13 1015.0 1012.4 0.0
01/11:30am 29.7 30.0 17.8 48 7.7 E 13 22 7 12 1015.6 - 0.0
01/11:00am 28.9 27.8 17.4 49 7.4 ESE 19 30 10 16 1016.2 - 0.0
01/10:30am 28.1 26.7 17.0 51 7.1 E 20 35 11 19 1016.5 - 0.0
01/10:00am 27.7 26.6 17.8 54 6.4 E 20 30 11 16 1016.8 - 0.0
01/09:30am 25.5 24.0 17.7 62 5.0 ESE 22 30 12 16 1017.0 - 0.0
01/09:00am 25.1 26.0 17.6 63 4.8 NE 9 15 5 8 1017.0 1014.4 0.0
01/08:30am 25.1 26.3 18.3 66 4.4 ENE 9 17 5 9 1016.9 - 0.0
01/08:00am 24.2 24.4 18.6 71 3.6 SE 15 20 8 11 1016.5 - 0.0
01/07:30am 22.6 21.7 18.2 76 2.8 SE 20 30 11 16 1016.0 - 0.0
01/07:00am 21.6 21.9 18.0 80 2.3 SE 13 17 7 9 1015.7 - 0.0
01/06:30am 21.1 21.9 18.1 83 1.9 SE 11 17 6 9 1015.6 - 0.0
01/06:00am 20.6 21.2 17.8 84 1.8 S 11 15 6 8 1015.2 1012.6 0.0
01/05:30am 21.4 21.7 18.0 81 2.2 SE 13 19 7 10 1015.0 - 0.0
01/05:00am 21.6 21.6 18.2 81 2.2 SE 15 22 8 12 1014.9 - 0.0
01/04:30am 21.2 22.0 18.2 83 1.9 SSE 11 19 6 10 1014.8 - 0.0
01/04:00am 21.2 21.5 17.8 81 2.1 SE 13 20 7 11 1014.7 - 0.0
01/03:30am 20.4 20.8 17.2 82 2.0 SSE 11 19 6 10 1014.7 - 0.0
01/03:00am 21.2 21.7 17.4 79 2.4 SE 11 15 6 8 1014.9 1012.3 0.0
01/02:30am 21.5 21.0 17.9 80 2.3 SE 17 24 9 13 1015.2 - 0.0
01/02:00am 21.4 22.0 17.8 80 2.3 SE 11 19 6 10 1015.6 - 0.0
01/01:30am 21.7 21.0 18.3 81 2.2 SE 19 24 10 13 1015.8 - 0.0
01/01:00am 21.2 21.6 18.2 83 1.9 SE 13 19 7 10 1016.3 - 0.0
01/12:30am 21.6 21.4 18.4 82 2.0 SE 17 26 9 14 1016.6 - 0.0
01/12:00am 21.5 21.3 18.5 83 1.9 SE 17 20 9 11 1017.1 1014.5 0.0
 
Date/Time
EST
Temp
°C
App
Temp
°C
Dew
Point
Rel
Hum
%
Delta-T
°C
Wind Press
QNH
hPa
Press
MSL
hPa
Rain
since 9 am
mm
Dir
 
Spd
km/h
Gust
km/h
Spd
kts
Gust
kts
31/11:30pm 21.3 21.0 18.3 83 1.9 SE 17 24 9 13 1017.3 - 0.0
31/11:00pm 21.3 21.0 18.3 83 1.9 SSE 17 24 9 13 1017.3 - 0.0
31/10:30pm 21.4 21.4 18.2 82 2.0 SSE 15 20 8 11 1017.4 - 0.0
31/10:00pm 21.6 21.3 18.2 81 2.2 SSE 17 26 9 14 1017.8 - 0.0
31/09:30pm 21.8 21.1 18.2 80 2.3 SSE 19 28 10 15 1017.8 - 0.0
31/09:00pm 21.9 21.5 18.1 79 2.4 SSE 17 22 9 12 1017.6 1014.6 0.0
31/08:30pm 22.2 21.5 18.2 78 2.5 SSE 19 28 10 15 1017.2 - 0.0
31/08:00pm 22.7 21.6 17.8 74 3.1 SE 20 28 11 15 1016.8 - 0.0
31/07:30pm 23.1 21.6 17.6 71 3.5 SE 22 30 12 16 1016.3 - 0.0
31/07:00pm 23.5 21.4 16.3 64 4.5 SE 22 33 12 18 1015.9 - 0.0
31/06:30pm 24.3 21.7 15.8 59 5.3 SE 24 37 13 20 1015.6 - 0.0
31/06:00pm 25.0 21.8 16.2 58 5.5 SE 28 41 15 22 1015.2 1012.3 0.0
31/05:30pm 26.0 23.0 16.8 57 5.8 SSE 28 39 15 21 1015.0 - 0.0
31/05:00pm 26.6 23.5 16.5 54 6.4 SE 28 39 15 21 1014.8 - 0.0
31/04:30pm 27.7 26.1 18.4 57 6.0 SE 24 35 13 19 1014.5 - 0.0
31/04:00pm 27.8 26.3 18.5 57 6.1 SE 24 37 13 20 1014.3 - 0.0
31/03:30pm 28.7 27.8 18.2 53 6.8 SE 20 33 11 18 1014.4 - 0.0
31/03:00pm 28.5 27.4 19.4 57 6.0 SE 24 37 13 20 1014.6 1011.6 0.0
31/02:30pm 28.3 27.1 19.2 57 6.0 SSE 24 32 13 17 1015.0 - 0.0
31/02:00pm 28.1 26.1 19.1 58 5.9 SSE 28 41 15 22 1015.5 - 0.0
31/01:30pm 28.7 27.9 19.3 56 6.2 SSE 22 30 12 16 1015.7 - 0.0
31/01:00pm 27.6 27.1 17.7 54 6.4 E 17 24 9 13 1016.2 - 0.0
31/12:30pm 28.0 26.8 17.5 52 6.7 E 20 33 11 18 1016.5 - 0.0
31/12:00pm 28.3 27.5 18.1 54 6.6 E 19 28 10 15 1016.9 1014.0 0.0
31/11:30am 27.5 26.8 18.2 57 6.0 E 19 32 10 17 1017.6 - 0.0
31/11:00am 26.5 25.8 18.6 62 5.1 ESE 20 28 11 15 1018.0 - 0.0
31/10:30am 26.9 26.1 18.5 60 5.5 SE 20 30 11 16 1018.1 - 0.0
31/10:00am 26.1 24.8 18.2 61 5.1 ESE 22 30 12 16 1018.2 - 0.0
31/09:30am 25.5 24.5 18.9 67 4.3 ESE 22 32 12 17 1018.2 - 0.0
31/09:00am 25.2 24.7 19.1 69 4.0 ESE 20 26 11 14 1018.2 1015.2 0.0
31/08:30am 24.7 24.4 19.1 71 3.6 SE 19 28 10 15 1018.1 - 0.0
31/08:00am 24.2 25.1 19.3 74 3.2 SE 13 20 7 11 1017.8 - 0.0
31/07:30am 23.7 24.0 18.8 74 3.2 SSE 15 20 8 11 1017.4 - 0.0
31/07:00am 22.7 22.6 18.7 78 2.6 SSE 17 20 9 11 1016.9 - 0.0
31/06:30am 23.1 22.5 18.4 75 3.0 ESE 19 24 10 13 1016.7 - 0.0
31/06:00am 22.6 22.3 18.2 76 2.8 SE 17 24 9 13 1016.3 1013.3 0.0
31/05:30am 22.6 22.3 18.2 76 2.8 SE 17 22 9 12 1016.2 - 0.0
31/05:00am 22.9 22.0 18.2 75 3.0 SE 20 28 11 15 1016.0 - 0.0
31/04:30am 22.6 22.9 18.8 79 2.4 SE 15 26 8 14 1015.9 - 0.0
31/04:00am 22.2 22.5 18.8 81 2.2 SE 15 26 8 14 1015.8 - 0.0
31/03:30am 22.5 23.3 19.1 81 2.2 SSE 13 19 7 10 1015.8 - 0.0
31/03:00am 22.3 23.5 19.1 82 2.1 SE 11 15 6 8 1016.0 1013.0 0.0
31/02:30am 21.8 23.7 19.0 84 1.8 SE 7 9 4 5 1016.4 - 0.0
31/02:00am 21.4 23.2 18.8 85 1.7 SE 7 9 4 5 1016.8 - 0.0
31/01:30am 21.4 24.1 18.6 84 1.8 W 2 6 1 3 1017.1 - 0.0
31/01:00am 21.9 25.1 18.9 83 1.9 CALM 0 0 0 0 1017.6 - 0.0
31/12:30am 22.5 25.9 19.3 82 2.1 CALM 0 7 0 4 1018.0 - 0.0
31/12:00am 22.6 24.6 19.2 81 2.2 ESE 7 13 4 7 1018.2 1015.2 0.0
 
Date/Time
EST
Temp
°C
App
Temp
°C
Dew
Point
Rel
Hum
%
Delta-T
°C
Wind Press
QNH
hPa
Press
MSL
hPa
Rain
since 9 am
mm
Dir
 
Spd
km/h
Gust
km/h
Spd
kts
Gust
kts
30/11:30pm 23.4 25.1 19.3 78 2.7 ESE 9 19 5 10 1018.6 - 0.0
30/11:00pm 22.8 24.6 19.6 82 2.1 S 9 13 5 7 1018.7 - 0.0
30/10:30pm 23.0 24.7 19.4 80 2.3 S 9 11 5 6 1018.8 - 0.0
30/10:00pm 23.2 24.8 19.1 78 2.7 S 9 13 5 7 1018.9 - 0.0
30/09:30pm 23.4 24.1 18.9 76 2.9 SE 13 17 7 9 1018.9 - 0.0
30/09:00pm 23.8 24.7 19.3 76 2.9 SE 13 20 7 11 1018.8 1015.9 0.0
30/08:30pm 23.5 24.8 19.2 77 2.8 S 11 17 6 9 1018.7 - 0.0
30/08:00pm 23.5 24.7 19.0 76 2.9 S 11 15 6 8 1018.4 - 0.0
30/07:30pm 23.5 24.5 18.6 74 3.2 SSE 11 15 6 8 1018.1 - 0.0
30/07:00pm 23.6 24.5 18.3 72 3.4 SE 11 17 6 9 1017.8 - 0.0
30/06:30pm 24.2 25.0 18.2 69 3.8 SSE 11 17 6 9 1017.4 - 0.0
30/06:00pm 24.9 24.7 17.6 64 4.6 SSE 15 20 8 11 1017.3 1014.4 0.0
30/05:30pm 25.3 24.7 17.5 62 5.0 SE 17 22 9 12 1017.2 - 0.0
30/05:00pm 25.9 23.5 17.3 59 5.5 SSE 26 35 14 19 1017.1 - 0.0
30/04:30pm 28.2 26.8 18.0 54 6.6 SSE 22 32 12 17 1016.6 - 0.0
30/04:00pm 28.6 27.1 17.8 52 7.0 SE 22 32 12 17 1016.3 - 0.0
30/03:30pm 29.0 28.2 16.2 46 8.1 ESE 15 26 8 14 1016.1 - 0.0
30/03:00pm 28.6 26.9 16.2 47 7.8 SE 20 28 11 15 1016.2 1013.2 0.0
30/02:30pm 28.4 26.9 16.7 49 7.4 SE 20 32 11 17 1016.3 - 0.0

Other Formats:

Comma delimited format used in spreadsheet applications
http://www.bom.gov.au/fwo/IDQ60801/IDQ60801.95286.axf

JavaScript Object Notation format (JSON) in row-major order
http://www.bom.gov.au/fwo/IDQ60801/IDQ60801.95286.json